createdAt,value
2022-10-31T00:00:28.569Z,5.40
2022-10-31T00:02:55.142Z,7.78
2022-10-31T00:05:21.727Z,4.00
2022-10-31T00:07:48.382Z,5.45
2022-10-31T00:10:15.079Z,8.50
2022-10-31T00:12:41.667Z,4.97
2022-10-31T00:15:08.528Z,6.93
2022-10-31T00:17:36.934Z,20.88
2022-10-31T00:20:03.812Z,9.10
2022-10-31T00:22:30.443Z,10.05
2022-10-31T00:24:57.048Z,6.53
2022-10-31T00:27:23.766Z,9.68
2022-10-31T00:29:50.424Z,7.28
2022-10-31T00:32:17.124Z,9.30
2022-10-31T00:34:43.707Z,5.13
2022-10-31T00:37:10.350Z,7.05
2022-10-31T00:39:37.009Z,9.30
2022-10-31T00:42:03.714Z,10.45
2022-10-31T00:44:30.383Z,10.23
2022-10-31T00:46:56.994Z,10.20
2022-10-31T00:49:23.843Z,12.20
2022-10-31T00:51:50.490Z,6.90
2022-10-31T00:54:17.159Z,6.28
2022-10-31T00:56:43.749Z,3.83
2022-10-31T00:59:10.416Z,7.55
2022-10-31T01:01:37.220Z,5.68
2022-10-31T01:04:04.129Z,5.53
2022-10-31T01:06:30.742Z,5.57
2022-10-31T01:08:57.318Z,5.97
2022-10-31T01:11:24.517Z,8.45
2022-10-31T01:13:52.842Z,4.95
2022-10-31T01:16:21.925Z,7.40
2022-10-31T01:18:48.574Z,6.55
2022-10-31T01:21:17.830Z,4.82
2022-10-31T01:23:44.558Z,5.72
2022-10-31T01:26:15.167Z,5.07
2022-10-31T01:28:49.568Z,5.85
2022-10-31T01:31:16.562Z,6.00
2022-10-31T01:33:43.253Z,8.55
2022-10-31T01:36:14.804Z,4.35
2022-10-31T01:38:41.483Z,7.55
2022-10-31T01:41:08.192Z,6.03
2022-10-31T01:44:01.053Z,13.18
2022-10-31T01:46:37.926Z,8.88
2022-10-31T01:49:14.437Z,6.03
2022-10-31T01:51:44.216Z,11.50
2022-10-31T01:54:13.426Z,8.38
2022-10-31T01:56:41.635Z,7.53
2022-10-31T01:59:09.785Z,11.60
2022-10-31T02:01:36.694Z,8.98
2022-10-31T02:04:03.354Z,5.82
2022-10-31T02:06:41.906Z,7.47
2022-10-31T02:09:08.571Z,5.68
2022-10-31T02:11:35.821Z,4.72
2022-10-31T02:14:03.398Z,6.63
2022-10-31T02:16:30.033Z,5.70
2022-10-31T02:18:56.934Z,7.10
2022-10-31T02:21:42.478Z,6.40
2022-10-31T02:24:46.859Z,5.10
2022-10-31T02:27:41.177Z,7.80
2022-10-31T02:30:22.040Z,5.18
2022-10-31T02:32:51.662Z,8.80
2022-10-31T02:35:39.190Z,4.97
2022-10-31T02:38:27.713Z,4.80
2022-10-31T02:40:54.181Z,6.85
2022-10-31T02:43:32.599Z,8.15
2022-10-31T02:46:04.437Z,8.23
2022-10-31T02:48:31.553Z,5.60
2022-10-31T02:51:00.761Z,8.93
2022-10-31T02:53:27.470Z,9.70
2022-10-31T02:55:53.964Z,4.93
2022-10-31T02:58:23.892Z,5.95
2022-10-31T03:01:27.548Z,8.60
2022-10-31T03:04:23.461Z,9.10
2022-10-31T03:07:02.457Z,10.50
2022-10-31T03:09:55.299Z,7.20
2022-10-31T03:12:31.086Z,13.13
2022-10-31T03:15:06.835Z,7.70
2022-10-31T03:17:37.508Z,7.20
2022-10-31T03:20:04.931Z,7.30
2022-10-31T03:22:32.450Z,9.50
2022-10-31T03:24:59.030Z,8.55
2022-10-31T03:27:26.947Z,7.55
2022-10-31T03:29:57.815Z,6.45
2022-10-31T03:32:29.103Z,8.80
2022-10-31T03:34:57.066Z,6.38
2022-10-31T03:37:24.758Z,9.52
2022-10-31T03:39:51.494Z,5.50
2022-10-31T03:42:28.322Z,8.85
2022-10-31T03:44:57.860Z,7.82
2022-10-31T03:47:24.475Z,4.47
2022-10-31T03:49:51.263Z,6.85
2022-10-31T03:52:30.266Z,8.95
2022-10-31T03:55:20.639Z,6.18
2022-10-31T03:58:03.653Z,5.93
2022-10-31T04:00:31.453Z,5.85
2022-10-31T04:03:11.056Z,10.18
2022-10-31T04:05:37.717Z,10.40
2022-10-31T04:08:05.837Z,8.13
2022-10-31T04:10:33.360Z,17.27
2022-10-31T04:13:09.213Z,8.40
2022-10-31T04:15:36.208Z,10.13
2022-10-31T04:18:03.257Z,6.78
2022-10-31T04:20:34.266Z,9.07
2022-10-31T04:23:01.768Z,10.63
2022-10-31T04:25:28.508Z,7.25
2022-10-31T04:27:55.483Z,5.20
2022-10-31T04:30:22.210Z,8.32
2022-10-31T04:32:48.808Z,15.23
2022-10-31T04:35:15.676Z,9.10
2022-10-31T04:37:42.334Z,7.47
2022-10-31T04:40:09.532Z,8.52
2022-10-31T04:42:36.194Z,17.95
2022-10-31T04:45:02.830Z,10.80
2022-10-31T04:47:32.500Z,14.68
2022-10-31T04:49:59.233Z,8.60
2022-10-31T04:52:25.858Z,21.23
2022-10-31T04:54:52.425Z,27.20
2022-10-31T04:57:19.058Z,17.95
2022-10-31T04:59:45.644Z,14.93
2022-10-31T05:02:12.439Z,12.65
2022-10-31T05:04:39.161Z,9.60
2022-10-31T05:07:05.839Z,11.00
2022-10-31T05:09:32.486Z,11.15
2022-10-31T05:11:59.123Z,9.40
2022-10-31T05:14:25.822Z,9.52
2022-10-31T05:16:52.433Z,11.38
2022-10-31T05:19:19.053Z,7.65
2022-10-31T05:21:45.676Z,8.75
2022-10-31T05:24:12.364Z,9.88
2022-10-31T05:27:07.015Z,9.32
2022-10-31T05:29:34.453Z,9.20
2022-10-31T05:32:01.089Z,10.05
2022-10-31T05:34:27.735Z,10.82
2022-10-31T05:36:54.333Z,9.27
2022-10-31T05:39:20.996Z,16.83
2022-10-31T05:41:47.615Z,12.35
2022-10-31T05:44:14.251Z,7.72
2022-10-31T05:46:40.852Z,8.27
2022-10-31T05:49:07.523Z,7.00
2022-10-31T05:51:34.176Z,7.32
2022-10-31T05:54:00.831Z,9.10
2022-10-31T05:56:28.259Z,7.72
2022-10-31T05:58:54.962Z,11.95
2022-10-31T06:01:21.687Z,7.63
2022-10-31T06:03:48.448Z,6.28
2022-10-31T06:06:15.078Z,7.53
2022-10-31T06:08:41.741Z,4.50
2022-10-31T06:11:08.381Z,8.27
2022-10-31T06:13:34.963Z,5.70
2022-10-31T06:16:01.634Z,6.68
2022-10-31T06:18:28.261Z,9.70
2022-10-31T06:20:54.853Z,6.38
2022-10-31T06:23:21.493Z,5.82
2022-10-31T06:25:51.323Z,5.05
2022-10-31T06:28:18.179Z,6.53
2022-10-31T06:30:44.750Z,6.80
2022-10-31T06:33:11.350Z,8.57
2022-10-31T06:35:38.017Z,7.95
2022-10-31T06:38:04.987Z,5.82
2022-10-31T06:40:31.941Z,7.25
2022-10-31T06:43:02.540Z,7.95
2022-10-31T06:45:29.251Z,9.52
2022-10-31T06:48:16.197Z,6.47
2022-10-31T06:50:42.856Z,4.88
2022-10-31T06:55:37.395Z,6.15
2022-10-31T06:58:04.460Z,5.63
2022-10-31T07:00:31.539Z,3.70
2022-10-31T07:03:02.796Z,4.30
2022-10-31T07:05:29.817Z,6.22
2022-10-31T07:08:00.924Z,5.25
2022-10-31T07:10:29.053Z,4.57
2022-10-31T07:13:00.625Z,34.92
2022-10-31T07:15:28.410Z,44.42
2022-10-31T07:17:55.190Z,6.97
2022-10-31T07:20:21.817Z,5.05
2022-10-31T07:22:50.722Z,11.10
2022-10-31T07:25:17.564Z,6.80
2022-10-31T07:27:44.262Z,22.80
2022-10-31T07:30:12.126Z,14.70
2022-10-31T07:32:43.173Z,12.15
2022-10-31T07:35:10.726Z,17.38
2022-10-31T07:37:37.375Z,11.50
2022-10-31T07:40:05.068Z,7.45
2022-10-31T07:42:41.798Z,9.18
2022-10-31T07:45:11.049Z,17.23
2022-10-31T07:47:45.286Z,4.68
2022-10-31T07:50:35.015Z,8.77
2022-10-31T07:53:06.265Z,9.70
2022-10-31T07:55:33.066Z,10.98
2022-10-31T07:58:07.850Z,5.70
2022-10-31T08:00:35.556Z,6.40
2022-10-31T08:03:06.471Z,8.52
2022-10-31T08:05:33.536Z,4.57
2022-10-31T08:08:00.468Z,7.72
2022-10-31T08:10:27.829Z,9.88
2022-10-31T08:13:07.839Z,4.80
2022-10-31T08:15:37.879Z,9.85
2022-10-31T08:18:05.183Z,18.92
2022-10-31T08:20:31.843Z,15.27
2022-10-31T08:23:00.846Z,9.10
2022-10-31T08:25:30.928Z,8.13
2022-10-31T08:28:00.899Z,9.40
2022-10-31T08:30:32.181Z,8.18
2022-10-31T08:33:14.984Z,4.97
2022-10-31T08:35:41.821Z,10.20
2022-10-31T08:38:09.846Z,3.70
2022-10-31T08:40:36.604Z,4.95
2022-10-31T08:43:16.576Z,5.10
2022-10-31T08:45:43.970Z,8.00
2022-10-31T08:48:12.350Z,7.43
2022-10-31T08:50:39.114Z,3.53
2022-10-31T08:53:07.806Z,4.63
2022-10-31T08:55:38.223Z,3.92
2022-10-31T08:58:06.303Z,4.93
2022-10-31T09:00:33.787Z,5.43
2022-10-31T09:03:01.890Z,3.88
2022-10-31T09:05:28.587Z,2.03
2022-10-31T09:07:59.519Z,5.95
2022-10-31T09:10:26.766Z,5.43
2022-10-31T09:13:01.578Z,5.35
2022-10-31T09:15:28.705Z,2.53
2022-10-31T09:17:55.459Z,3.78
2022-10-31T09:20:22.231Z,7.38
2022-10-31T09:22:48.977Z,4.78
2022-10-31T09:25:15.685Z,2.83
2022-10-31T09:27:42.357Z,4.03
2022-10-31T09:30:09.545Z,5.22
2022-10-31T09:32:36.121Z,3.78
2022-10-31T09:35:02.792Z,7.68
2022-10-31T09:37:29.547Z,3.25
2022-10-31T09:39:56.187Z,5.50
2022-10-31T09:42:41.155Z,4.22
2022-10-31T09:45:09.413Z,5.30
2022-10-31T09:48:01.053Z,7.40
2022-10-31T09:50:32.629Z,11.07
2022-10-31T09:53:05.992Z,6.05
2022-10-31T09:55:37.515Z,6.75
2022-10-31T09:58:04.210Z,4.05
2022-10-31T10:00:33.079Z,5.18
2022-10-31T10:03:20.918Z,4.60
2022-10-31T10:05:52.752Z,6.10
2022-10-31T10:08:27.763Z,6.88
2022-10-31T10:11:06.450Z,2.78
2022-10-31T10:13:38.735Z,5.70
2022-10-31T10:16:34.591Z,6.15
2022-10-31T10:19:23.909Z,5.43
2022-10-31T10:22:09.478Z,6.60
2022-10-31T10:25:11.524Z,3.15
2022-10-31T10:28:05.668Z,4.43
2022-10-31T10:30:42.846Z,3.22
2022-10-31T10:33:17.264Z,2.15
2022-10-31T10:35:47.216Z,4.43
2022-10-31T10:38:43.629Z,4.68
2022-10-31T10:41:18.869Z,3.17
2022-10-31T10:46:48.846Z,5.63
2022-10-31T10:49:24.198Z,3.15
2022-10-31T10:52:07.504Z,11.68
2022-10-31T10:54:48.680Z,4.25
2022-10-31T10:57:29.375Z,3.75
2022-10-31T10:59:55.959Z,5.70
2022-10-31T11:02:32.082Z,3.17
2022-10-31T11:04:59.437Z,5.68
2022-10-31T11:07:26.115Z,6.40
2022-10-31T11:10:04.198Z,3.45
2022-10-31T11:12:33.133Z,7.57
2022-10-31T11:15:01.341Z,11.73
2022-10-31T11:17:31.906Z,4.28
2022-10-31T11:20:17.831Z,4.82
2022-10-31T11:22:49.267Z,6.53
2022-10-31T11:25:22.692Z,6.20
2022-10-31T11:28:02.995Z,10.23
2022-10-31T11:30:29.871Z,4.18
2022-10-31T11:32:56.449Z,4.63
2022-10-31T11:35:23.668Z,5.93
2022-10-31T11:37:51.761Z,7.97
2022-10-31T11:40:23.621Z,3.17
2022-10-31T11:42:50.279Z,4.97
2022-10-31T11:45:17.813Z,3.40
2022-10-31T11:47:47.141Z,5.72
2022-10-31T11:50:20.462Z,10.10
2022-10-31T11:52:47.103Z,4.83
2022-10-31T11:55:13.657Z,5.20
2022-10-31T11:57:52.151Z,8.15
2022-10-31T12:00:22.414Z,9.55
2022-10-31T12:02:49.106Z,3.35
2022-10-31T12:05:23.431Z,9.25
2022-10-31T12:10:17.125Z,6.53
2022-10-31T12:12:49.782Z,5.28
2022-10-31T12:15:30.473Z,6.25
2022-10-31T12:18:12.378Z,5.75
2022-10-31T12:20:57.292Z,4.97
2022-10-31T12:23:52.441Z,8.15
2022-10-31T12:26:27.185Z,5.25
2022-10-31T12:29:15.709Z,5.75
2022-10-31T12:32:36.425Z,10.05
2022-10-31T12:35:15.202Z,8.80
2022-10-31T12:38:04.512Z,7.88
2022-10-31T12:40:40.255Z,12.82
2022-10-31T12:43:12.802Z,6.60
2022-10-31T12:45:58.049Z,9.18
2022-10-31T12:48:51.620Z,7.25
2022-10-31T12:51:46.543Z,14.35
2022-10-31T12:54:42.818Z,8.00
2022-10-31T12:57:29.428Z,3.90
2022-10-31T13:00:24.208Z,9.88
2022-10-31T13:02:57.763Z,6.45
2022-10-31T13:05:43.090Z,7.25
2022-10-31T13:08:15.461Z,5.25
2022-10-31T13:11:03.255Z,5.85
2022-10-31T13:13:37.093Z,7.90
2022-10-31T13:16:15.024Z,6.65
2022-10-31T13:18:43.847Z,8.27
2022-10-31T13:21:24.907Z,6.68
2022-10-31T13:23:52.735Z,4.25
2022-10-31T13:26:30.253Z,7.32
2022-10-31T13:29:21.351Z,15.13
2022-10-31T13:31:47.999Z,8.35
2022-10-31T13:34:28.153Z,10.50
2022-10-31T13:37:12.956Z,5.55
2022-10-31T13:39:48.484Z,8.13
2022-10-31T13:42:29.651Z,10.15
2022-10-31T13:44:56.253Z,6.13
2022-10-31T13:47:27.642Z,4.78
2022-10-31T13:50:07.297Z,3.72
2022-10-31T13:52:33.983Z,7.88
2022-10-31T13:55:00.621Z,6.85
2022-10-31T13:57:34.877Z,7.55
2022-10-31T14:00:21.897Z,6.32
2022-10-31T14:02:53.429Z,6.68
2022-10-31T14:05:33.074Z,7.10
2022-10-31T14:08:02.570Z,2.45
2022-10-31T14:10:39.954Z,4.55
2022-10-31T14:13:18.285Z,3.33
2022-10-31T14:16:00.982Z,8.05
2022-10-31T14:18:41.415Z,5.88
2022-10-31T14:21:24.227Z,3.58
2022-10-31T14:23:54.135Z,7.55
2022-10-31T14:26:27.668Z,6.13
2022-10-31T14:28:55.929Z,7.65
2022-10-31T14:31:41.786Z,5.60
2022-10-31T14:34:32.084Z,8.45
2022-10-31T14:37:13.924Z,8.82
2022-10-31T14:40:11.550Z,6.88
2022-10-31T14:42:43.902Z,4.90
2022-10-31T14:45:19.412Z,9.30
2022-10-31T14:48:03.828Z,11.00
2022-10-31T14:50:48.295Z,8.18
2022-10-31T14:53:25.917Z,11.13
2022-10-31T14:55:56.393Z,7.22
2022-10-31T14:58:40.336Z,10.75
2022-10-31T15:01:07.025Z,9.30
2022-10-31T15:03:44.582Z,10.00
2022-10-31T15:06:20.952Z,12.23
2022-10-31T15:08:49.750Z,64.50
2022-10-31T15:11:24.478Z,137.20
2022-10-31T15:13:52.050Z,135.68
2022-10-31T15:16:35.613Z,55.72
2022-10-31T15:19:06.902Z,49.47
2022-10-31T15:21:33.583Z,52.05
2022-10-31T15:24:01.484Z,76.38
2022-10-31T15:26:33.814Z,31.27
2022-10-31T15:29:05.642Z,15.95
2022-10-31T15:31:32.329Z,21.02
2022-10-31T15:34:02.841Z,10.48
2022-10-31T15:36:31.341Z,15.43
2022-10-31T15:38:59.929Z,21.17
2022-10-31T15:41:53.132Z,63.45
2022-10-31T15:44:24.760Z,52.85
2022-10-31T15:47:16.930Z,106.15
2022-10-31T15:49:54.764Z,155.05
2022-10-31T15:52:51.248Z,63.92
2022-10-31T15:55:22.890Z,41.80
2022-10-31T15:57:53.789Z,46.00
2022-10-31T16:00:34.223Z,27.75
2022-10-31T16:03:25.121Z,29.35
2022-10-31T16:05:53.737Z,18.70
2022-10-31T16:08:29.921Z,37.90
2022-10-31T16:11:08.895Z,24.38
2022-10-31T16:13:41.443Z,27.50
2022-10-31T16:19:03.482Z,54.78
2022-10-31T16:21:35.211Z,60.90
2022-10-31T16:24:14.147Z,49.75
2022-10-31T16:26:40.730Z,52.47
2022-10-31T16:29:46.818Z,90.28
2022-10-31T16:32:24.998Z,101.03
2022-10-31T16:35:10.364Z,93.07
2022-10-31T16:37:40.825Z,64.75
2022-10-31T16:40:08.892Z,40.25
2022-10-31T16:42:35.587Z,49.53
2022-10-31T16:45:02.422Z,23.00
2022-10-31T16:47:29.437Z,17.60
2022-10-31T16:50:00.822Z,22.67
2022-10-31T16:52:27.694Z,36.13
2022-10-31T16:54:55.192Z,68.03
2022-10-31T16:57:27.406Z,27.65
2022-10-31T16:59:56.912Z,22.38
2022-10-31T17:02:23.580Z,19.42
2022-10-31T17:04:53.801Z,14.70
2022-10-31T17:07:23.373Z,20.45
2022-10-31T17:09:50.011Z,16.35
2022-10-31T17:12:19.423Z,17.88
2022-10-31T17:14:48.018Z,16.70
2022-10-31T17:17:14.680Z,28.85
2022-10-31T17:19:41.489Z,27.77
2022-10-31T17:22:12.461Z,20.17
2022-10-31T17:24:39.153Z,29.38
2022-10-31T17:27:05.806Z,22.77
2022-10-31T17:29:32.927Z,19.35
2022-10-31T17:32:00.338Z,27.67
2022-10-31T17:34:27.009Z,28.73
2022-10-31T17:36:53.630Z,24.27
2022-10-31T17:39:20.450Z,25.50
2022-10-31T17:41:51.737Z,41.92
2022-10-31T17:44:18.619Z,38.80
2022-10-31T17:46:45.222Z,35.30
2022-10-31T17:49:12.296Z,35.92
2022-10-31T17:51:39.030Z,24.10
2022-10-31T17:54:07.110Z,20.35
2022-10-31T17:56:33.785Z,28.42
2022-10-31T17:59:00.483Z,36.05
2022-10-31T18:01:27.292Z,21.65
2022-10-31T18:03:54.031Z,33.75
2022-10-31T18:06:20.724Z,43.13
2022-10-31T18:08:47.400Z,65.20
2022-10-31T18:11:17.867Z,46.17
2022-10-31T18:13:44.602Z,82.97
2022-10-31T18:16:16.247Z,74.50
2022-10-31T18:18:42.902Z,55.33
2022-10-31T18:21:09.594Z,33.05
2022-10-31T18:23:36.360Z,16.02
2022-10-31T18:26:02.965Z,16.45
2022-10-31T18:28:29.598Z,10.85
2022-10-31T18:30:59.413Z,15.27
2022-10-31T18:33:26.112Z,18.40
2022-10-31T18:35:52.777Z,20.08
2022-10-31T18:38:19.470Z,18.10
2022-10-31T18:40:46.063Z,22.20
2022-10-31T18:43:12.803Z,45.30
2022-10-31T18:45:48.123Z,48.22
2022-10-31T18:48:16.285Z,15.50
2022-10-31T18:50:43.220Z,17.80
2022-10-31T18:53:09.980Z,10.65
2022-10-31T18:55:45.532Z,11.25
2022-10-31T18:58:15.899Z,11.00
2022-10-31T19:00:42.574Z,15.93
2022-10-31T19:03:09.525Z,18.42
2022-10-31T19:05:36.167Z,14.20
2022-10-31T19:08:02.853Z,14.15
2022-10-31T19:10:29.500Z,13.43
2022-10-31T19:12:56.070Z,14.82
2022-10-31T19:15:22.726Z,16.33
2022-10-31T19:17:49.516Z,21.75
2022-10-31T19:20:16.282Z,13.88
2022-10-31T19:22:42.874Z,24.10
2022-10-31T19:25:11.037Z,14.60
2022-10-31T19:27:38.212Z,12.82
2022-10-31T19:30:05.603Z,25.10
2022-10-31T19:32:32.293Z,38.45
2022-10-31T19:34:58.990Z,28.02
2022-10-31T19:37:25.636Z,22.42
2022-10-31T19:39:52.710Z,56.30
2022-10-31T19:42:19.477Z,25.50
2022-10-31T19:44:46.058Z,25.05
2022-10-31T19:47:12.729Z,23.40
2022-10-31T19:49:39.354Z,33.72
2022-10-31T19:52:05.962Z,35.45
2022-10-31T19:54:32.670Z,41.60
2022-10-31T19:56:59.294Z,27.15
2022-10-31T19:59:26.356Z,38.35
2022-10-31T20:01:53.133Z,59.97
2022-10-31T20:04:19.898Z,33.20
2022-10-31T20:06:46.570Z,36.60
2022-10-31T20:09:13.914Z,32.60
2022-10-31T20:11:41.560Z,27.55
2022-10-31T20:14:08.317Z,32.90
2022-10-31T20:16:35.055Z,25.38
2022-10-31T20:19:01.740Z,20.13
2022-10-31T20:21:29.813Z,24.63
2022-10-31T20:24:00.587Z,16.83
2022-10-31T20:26:27.489Z,15.85
2022-10-31T20:28:55.848Z,15.52
2022-10-31T20:31:23.758Z,12.43
2022-10-31T20:33:50.481Z,15.05
2022-10-31T20:36:21.125Z,16.80
2022-10-31T20:38:47.862Z,17.80
2022-10-31T20:41:15.172Z,13.40
2022-10-31T20:43:42.173Z,18.63
2022-10-31T20:46:15.004Z,11.98
2022-10-31T20:48:41.635Z,10.38
2022-10-31T20:53:48.722Z,20.73
2022-10-31T20:56:17.076Z,14.10
2022-10-31T20:58:44.360Z,12.13
2022-10-31T21:01:15.655Z,15.60
2022-10-31T21:03:42.648Z,10.52
2022-10-31T21:06:10.398Z,11.75
2022-10-31T21:08:37.125Z,17.45
2022-10-31T21:11:23.685Z,16.42
2022-10-31T21:13:50.722Z,17.67
2022-10-31T21:16:22.353Z,13.40
2022-10-31T21:18:51.746Z,8.18
2022-10-31T21:21:20.029Z,10.48
2022-10-31T21:23:46.951Z,12.40
2022-10-31T21:26:15.732Z,9.43
2022-10-31T21:28:42.449Z,10.90
2022-10-31T21:31:10.515Z,9.13
2022-10-31T21:33:37.364Z,13.15
2022-10-31T21:36:04.546Z,11.48
2022-10-31T21:38:31.316Z,30.92
2022-10-31T21:41:14.602Z,10.35
2022-10-31T21:44:01.125Z,10.27
2022-10-31T21:46:29.698Z,10.98
2022-10-31T21:48:56.513Z,10.77
2022-10-31T21:51:25.064Z,21.15
2022-10-31T21:54:10.477Z,25.25
2022-10-31T21:56:37.309Z,32.53
2022-10-31T21:59:04.939Z,12.93
2022-10-31T22:01:31.813Z,13.55
2022-10-31T22:03:58.626Z,11.80
2022-10-31T22:06:30.174Z,11.70
2022-10-31T22:08:58.609Z,16.35
2022-10-31T22:11:25.319Z,16.35
2022-10-31T22:13:51.983Z,14.38
2022-10-31T22:16:22.852Z,16.17
2022-10-31T22:18:52.320Z,11.85
2022-10-31T22:21:20.155Z,11.00
2022-10-31T22:24:07.441Z,11.43
2022-10-31T22:26:34.490Z,17.48
2022-10-31T22:29:03.454Z,8.20
2022-10-31T22:31:30.628Z,8.82
2022-10-31T22:33:57.384Z,13.18
2022-10-31T22:36:25.694Z,12.30
2022-10-31T22:38:52.393Z,11.45
2022-10-31T22:41:20.686Z,9.88
2022-10-31T22:43:47.460Z,10.90
2022-10-31T22:46:19.202Z,11.85
2022-10-31T22:48:50.689Z,12.27
2022-10-31T22:51:37.894Z,13.02
2022-10-31T22:54:05.536Z,10.90
2022-10-31T22:56:33.123Z,14.15
2022-10-31T22:59:05.998Z,14.05
2022-10-31T23:01:33.443Z,11.35
2022-10-31T23:04:03.136Z,9.07
2022-10-31T23:06:31.313Z,7.75
2022-10-31T23:08:58.981Z,11.23
2022-10-31T23:11:35.443Z,11.18
2022-10-31T23:14:10.101Z,9.50
2022-10-31T23:16:37.593Z,9.85
2022-10-31T23:19:07.855Z,9.13
2022-10-31T23:21:57.359Z,7.95
2022-10-31T23:24:40.199Z,12.60
2022-10-31T23:27:13.144Z,15.65
2022-10-31T23:29:40.948Z,14.00
2022-10-31T23:32:11.207Z,8.82
2022-10-31T23:34:37.897Z,9.35
2022-10-31T23:37:04.485Z,7.70
2022-10-31T23:39:31.245Z,12.60
2022-10-31T23:41:57.994Z,16.35
2022-10-31T23:44:24.700Z,9.95
2022-10-31T23:46:51.294Z,11.00
2022-10-31T23:49:17.993Z,9.77
2022-10-31T23:51:44.642Z,14.55
2022-10-31T23:54:11.367Z,14.23
2022-10-31T23:56:38.097Z,8.68
2022-10-31T23:59:05.942Z,10.82
